Weather History for Mosby, MO

Change the Weather History Date:

Thursday, November 22, 2012

  Actual Average (KMKC) Record (KMKC)
Temperature  
Mean Temperature 57 °F -  
Max Temperature 68 °F 50 °F 69 °F (2012)
Min Temperature 44 °F 33 °F 23 °F (2000)
Degree Days  
Heating Degree Days 8    
Growing Degree Days 7 (Base 50)    
Moisture  
Dew Point 43 °F    
Average Humidity 55    
Maximum Humidity 71    
Minimum Humidity 42    
Precipitation  
Precipitation 0.00 in - - ()
Sea Level Pressure  
Sea Level Pressure 29.96 in    
Wind  
Wind Speed 9 mph ()    
Max Wind Speed 25 mph    
Max Gust Speed 33 mph    
Visibility 10.0 miles    
Events      
Averages and records for this station are not official NWS values.
T = Trace of Precipitation, MM = Missing Value Source: Averaged Metar Reports

Daily Weather History Graph

Daily Weather History Graph

Search for Another Location

Airport:

Trip Planner

Search our weather history database for the weather conditions in past years. The results will help you decide how hot, cold, wet, or windy it might be!

Date:

Astronomy

Nov. 22, 2012 Rise Set
Actual Time 7:09 AM CST 4:57 PM CST
Civil Twilight 6:40 AM CST 5:26 PM CST
Nautical Twilight 6:07 AM CST 5:59 PM CST
Astronomical Twilight 5:35 AM CST 6:31 PM CST
Moon 1:42 PM CST (11/22) 1:31 AM CST (11/22)
Length of Visible Light 10h 46m
Length of Day
9h 48m
Waxing Gibbous, 71% of the Moon is Illuminated
Nov 22
Waxing Gibbous
Nov 28
Full
Dec 6
Last Quarter
Dec 13
New
Dec 19
First Quarter

Hourly Weather History & Observations

Time (CST) Temp. Windchill Dew Point Humidity Pressure Visibility Wind Dir Wind Speed Gust Speed Precip Events Conditions
12:15 AM 53.6 °F - 37.4 °F 54% 29.98 in 10.0 mi SSE 6.9 mph - N/A   Clear
12:35 AM 55.4 °F - 37.4 °F 51% 29.98 in 10.0 mi SSE 6.9 mph - N/A   Clear
12:55 AM 55.4 °F - 37.4 °F 51% 29.97 in 10.0 mi SSE 8.1 mph - N/A   Clear
1:15 AM 55.4 °F - 37.4 °F 51% 29.97 in 10.0 mi SSE 8.1 mph - N/A   Clear
1:35 AM 55.4 °F - 37.4 °F 51% 29.96 in 10.0 mi SSE 8.1 mph - N/A   Clear
1:55 AM 55.4 °F - 37.4 °F 51% 29.95 in 10.0 mi SSE 6.9 mph - N/A   Clear
2:15 AM 55.4 °F - 37.4 °F 51% 29.95 in 10.0 mi SSE 5.8 mph - N/A   Clear
2:35 AM 55.4 °F - 37.4 °F 51% 29.94 in 10.0 mi SSE 6.9 mph - N/A   Scattered Clouds
2:55 AM 55.4 °F - 37.4 °F 51% 29.93 in 10.0 mi South 6.9 mph - N/A   Mostly Cloudy
3:15 AM 55.4 °F - 37.4 °F 51% 29.92 in 10.0 mi South 5.8 mph - N/A   Overcast
3:35 AM 59.0 °F - 39.2 °F 48% 29.92 in 10.0 mi South 8.1 mph - N/A   Mostly Cloudy
4:15 AM 57.2 °F - 41.0 °F 55% 29.90 in 10.0 mi South 9.2 mph - N/A   Clear
4:35 AM 55.4 °F - 41.0 °F 58% 29.89 in 10.0 mi SSE 10.4 mph - N/A   Clear
4:55 AM 57.2 °F - 41.0 °F 55% 29.89 in 10.0 mi South 8.1 mph - N/A   Clear
5:15 AM 57.2 °F - 41.0 °F 55% 29.88 in 10.0 mi South 12.7 mph 18.4 mph N/A   Clear
5:35 AM 57.2 °F - 41.0 °F 55% 29.88 in 10.0 mi South 10.4 mph 17.3 mph N/A   Clear
5:55 AM 57.2 °F - 41.0 °F 55% 29.88 in 10.0 mi South 10.4 mph 17.3 mph N/A   Clear
6:35 AM 59.0 °F - 42.8 °F 55% 29.87 in 10.0 mi South 10.4 mph - N/A   Clear
6:55 AM 59.0 °F - 42.8 °F 55% 29.87 in 10.0 mi South 10.4 mph 17.3 mph N/A   Clear
7:15 AM 59.0 °F - 42.8 °F 55% 29.87 in 10.0 mi SSE 10.4 mph - N/A   Clear
7:35 AM 59.0 °F - 42.8 °F 55% 29.86 in 10.0 mi South 10.4 mph 17.3 mph N/A   Clear
7:55 AM 59.0 °F - 44.6 °F 59% 29.85 in 10.0 mi South 12.7 mph - N/A   Clear
8:15 AM 59.0 °F - 44.6 °F 59% 29.86 in 10.0 mi South 13.8 mph 19.6 mph N/A   Clear
8:35 AM 60.8 °F - 44.6 °F 55% 29.86 in 10.0 mi South 13.8 mph 19.6 mph N/A   Scattered Clouds
8:55 AM 60.8 °F - 44.6 °F 55% 29.86 in 10.0 mi South 12.7 mph 17.3 mph N/A   Clear
9:15 AM 62.6 °F - 46.4 °F 55% 29.87 in 10.0 mi SSW 18.4 mph 28.8 mph N/A   Clear
9:35 AM 62.6 °F - 46.4 °F 55% 29.87 in 10.0 mi SSW 15.0 mph 24.2 mph N/A   Clear
9:55 AM 62.6 °F - 46.4 °F 55% 29.87 in 10.0 mi SSW 16.1 mph 23.0 mph N/A   Clear
10:15 AM 64.4 °F - 46.4 °F 52% 29.88 in 10.0 mi SSW 11.5 mph 20.7 mph N/A   Clear
10:35 AM 64.4 °F - 46.4 °F 52% 29.88 in 10.0 mi SW 10.4 mph 17.3 mph N/A   Clear
11:15 AM 64.4 °F - 48.2 °F 56% 29.89 in 10.0 mi SW 11.5 mph 16.1 mph N/A   Clear
11:35 AM 64.4 °F - 48.2 °F 56% 29.88 in 10.0 mi SSW 11.5 mph 20.7 mph N/A   Clear
12:15 PM 68.0 °F - 50.0 °F 52% 29.86 in 10.0 mi SW 16.1 mph 27.6 mph N/A   Clear
12:35 PM 68.0 °F - 50.0 °F 52% 29.86 in 10.0 mi SSW 19.6 mph 25.3 mph N/A   Clear
12:55 PM 68.0 °F - 50.0 °F 52% 29.86 in 10.0 mi SW 15.0 mph 18.4 mph N/A   Clear
1:15 PM 68.0 °F - 50.0 °F 52% 29.86 in 10.0 mi SW 12.7 mph - N/A   Clear
1:35 PM 66.2 °F - 51.8 °F 60% 29.85 in 10.0 mi SW 10.4 mph - N/A   Drizzle
2:15 PM 68.0 °F - 51.8 °F 56% 29.85 in 10.0 mi SSW 15.0 mph 20.7 mph N/A   Scattered Clouds
2:35 PM 68.0 °F - 51.8 °F 56% 29.85 in 10.0 mi SW 11.5 mph 17.3 mph N/A   Unknown
3:15 PM 66.2 °F - 51.8 °F 60% 29.88 in 10.0 mi SW 12.7 mph 18.4 mph N/A   Clear
3:35 PM 64.4 °F - 51.8 °F 64% 29.88 in 10.0 mi SW 9.2 mph 17.3 mph N/A   Clear
3:55 PM 66.2 °F - 51.8 °F 60% 29.89 in 10.0 mi WSW 8.1 mph - N/A   Clear
4:15 PM 66.2 °F - 50.0 °F 56% 29.90 in 10.0 mi SW 9.2 mph - N/A   Clear
4:35 PM 64.4 °F - 51.8 °F 64% 29.90 in 10.0 mi SW 5.8 mph - N/A   Clear
4:55 PM 64.4 °F - 51.8 °F 64% 29.92 in 10.0 mi WSW 4.6 mph - N/A   Clear
5:15 PM 62.6 °F - 50.0 °F 63% 29.96 in 10.0 mi NW 16.1 mph 20.7 mph N/A   Scattered Clouds
5:35 PM 62.6 °F - 39.2 °F 42% 29.98 in 10.0 mi NNW 9.2 mph 24.2 mph N/A   Scattered Clouds
5:55 PM 62.6 °F - 41.0 °F 45% 30.00 in 10.0 mi NW 12.7 mph 20.7 mph N/A   Mostly Cloudy
6:15 PM 60.8 °F - 39.2 °F 45% 30.03 in 10.0 mi NNW 25.3 mph 33.4 mph N/A   Mostly Cloudy
6:35 PM 59.0 °F - 39.2 °F 48% 30.06 in 10.0 mi NNW 11.5 mph 24.2 mph N/A   Scattered Clouds
6:55 PM 55.4 °F - 39.2 °F 54% 30.08 in 10.0 mi NNW 19.6 mph 26.5 mph N/A   Clear
7:15 PM 55.4 °F - 37.4 °F 51% 30.09 in 10.0 mi NNW 18.4 mph 27.6 mph N/A   Clear
7:35 PM 55.4 °F - 37.4 °F 51% 30.11 in 10.0 mi NNW 12.7 mph 27.6 mph N/A   Clear
7:55 PM 53.6 °F - 37.4 °F 54% 30.12 in 10.0 mi NNW 12.7 mph 23.0 mph N/A   Clear
8:15 PM 53.6 °F - 37.4 °F 54% 30.14 in 10.0 mi NNW 12.7 mph 18.4 mph N/A   Clear
8:35 PM 51.8 °F - 37.4 °F 58% 30.15 in 10.0 mi NW 11.5 mph 17.3 mph N/A   Clear
8:55 PM 51.8 °F - 37.4 °F 58% 30.17 in 10.0 mi NW 10.4 mph 23.0 mph N/A   Clear
9:15 PM 51.8 °F - 35.6 °F 54% 30.18 in 10.0 mi NW 12.7 mph 26.5 mph N/A   Clear
9:35 PM 50.0 °F - 35.6 °F 58% 30.19 in 10.0 mi NW 10.4 mph - N/A   Clear
9:55 PM 50.0 °F - 35.6 °F 58% 30.20 in 10.0 mi NW 9.2 mph - N/A   Clear
10:15 PM 48.2 °F - 35.6 °F 62% 30.21 in 10.0 mi NW 9.2 mph - N/A   Clear
10:35 PM 46.4 °F 42.4 °F 35.6 °F 66% 30.21 in 10.0 mi NW 8.1 mph - N/A   Clear
11:15 PM 46.4 °F 41.9 °F 35.6 °F 66% 30.22 in 10.0 mi NW 9.2 mph - N/A   Clear
11:35 PM 44.6 °F 41.4 °F 35.6 °F 71% 30.23 in 10.0 mi NW 5.8 mph - N/A   Clear